sensor_id;sensor_type;location;lat;lon;timestamp;pressure;altitude;pressure_sealevel;temperature;humidity
43814;BME280;29669;55.706;37.656;2022-11-10T00:01:08;100219.19;;;11.14;68.95
43814;BME280;29669;55.706;37.656;2022-11-10T00:04:14;100215.91;;;11.12;68.78
43814;BME280;29669;55.706;37.656;2022-11-10T00:07:24;100208.56;;;11.07;68.73
43814;BME280;29669;55.706;37.656;2022-11-10T00:10:31;100215.41;;;11.08;68.96
43814;BME280;29669;55.706;37.656;2022-11-10T00:13:38;100213.78;;;11.07;68.80
43814;BME280;29669;55.706;37.656;2022-11-10T00:17:03;100210.38;;;11.07;68.85
43814;BME280;29669;55.706;37.656;2022-11-10T00:20:11;100212.97;;;11.07;68.85
43814;BME280;29669;55.706;37.656;2022-11-10T00:23:17;100216.69;;;11.04;69.02
43814;BME280;29669;55.706;37.656;2022-11-10T00:26:24;100211.34;;;11.06;68.80
43814;BME280;29669;55.706;37.656;2022-11-10T00:29:31;100211.19;;;11.07;68.88
43814;BME280;29669;55.706;37.656;2022-11-10T00:32:37;100217.53;;;11.05;68.66
43814;BME280;29669;55.706;37.656;2022-11-10T00:35:44;100212.44;;;11.03;68.88
43814;BME280;29669;55.706;37.656;2022-11-10T00:38:50;100202.38;;;11.00;68.88
43814;BME280;29669;55.706;37.656;2022-11-10T00:41:56;100208.69;;;10.98;68.97
43814;BME280;29669;55.706;37.656;2022-11-10T00:45:03;100211.16;;;10.99;68.92
43814;BME280;29669;55.706;37.656;2022-11-10T00:48:10;100199.13;;;10.98;68.90
43814;BME280;29669;55.706;37.656;2022-11-10T00:51:23;100199.44;;;10.95;69.05
43814;BME280;29669;55.706;37.656;2022-11-10T00:54:30;100211.44;;;10.96;68.94
43814;BME280;29669;55.706;37.656;2022-11-10T00:57:36;100197.34;;;10.99;69.01
43814;BME280;29669;55.706;37.656;2022-11-10T01:00:42;100190.84;;;10.95;69.12
43814;BME280;29669;55.706;37.656;2022-11-10T01:03:50;100188.75;;;10.98;68.87
43814;BME280;29669;55.706;37.656;2022-11-10T01:06:55;100193.28;;;10.96;68.92
43814;BME280;29669;55.706;37.656;2022-11-10T01:10:02;100187.13;;;10.97;68.91
43814;BME280;29669;55.706;37.656;2022-11-10T01:13:08;100190.66;;;10.96;68.66
43814;BME280;29669;55.706;37.656;2022-11-10T01:16:17;100182.22;;;10.94;68.93
43814;BME280;29669;55.706;37.656;2022-11-10T01:22:50;100184.81;;;10.94;68.82
43814;BME280;29669;55.706;37.656;2022-11-10T01:26:06;100183.88;;;10.95;68.92
43814;BME280;29669;55.706;37.656;2022-11-10T01:29:13;100175.91;;;10.97;68.73
43814;BME280;29669;55.706;37.656;2022-11-10T01:32:19;100180.59;;;10.93;68.89
43814;BME280;29669;55.706;37.656;2022-11-10T01:35:25;100182.53;;;10.91;68.86
43814;BME280;29669;55.706;37.656;2022-11-10T01:38:33;100179.94;;;10.91;68.95
43814;BME280;29669;55.706;37.656;2022-11-10T01:41:40;100184.47;;;10.89;68.80
43814;BME280;29669;55.706;37.656;2022-11-10T01:51:57;100177.97;;;10.85;68.95
43814;BME280;29669;55.706;37.656;2022-11-10T01:55:05;100183.47;;;10.82;69.06
43814;BME280;29669;55.706;37.656;2022-11-10T01:58:14;100175.81;;;10.81;69.13
43814;BME280;29669;55.706;37.656;2022-11-10T02:01:21;100176.47;;;10.83;69.14
43814;BME280;29669;55.706;37.656;2022-11-10T02:04:28;100175.97;;;10.79;68.97
43814;BME280;29669;55.706;37.656;2022-11-10T02:07:35;100176.97;;;10.78;69.02
43814;BME280;29669;55.706;37.656;2022-11-10T02:10:41;100171.75;;;10.78;68.89
43814;BME280;29669;55.706;37.656;2022-11-10T02:13:48;100175.81;;;10.81;69.01
43814;BME280;29669;55.706;37.656;2022-11-10T02:16:54;100173.09;;;10.82;68.87
43814;BME280;29669;55.706;37.656;2022-11-10T02:20:05;100179.56;;;10.86;68.92
43814;BME280;29669;55.706;37.656;2022-11-10T02:23:59;100186.41;;;10.87;68.83
43814;BME280;29669;55.706;37.656;2022-11-10T02:26:44;100172.44;;;10.88;68.83
43814;BME280;29669;55.706;37.656;2022-11-10T02:29:51;100180.56;;;10.85;69.03
43814;BME280;29669;55.706;37.656;2022-11-10T02:32:57;100177.13;;;10.85;68.79
43814;BME280;29669;55.706;37.656;2022-11-10T02:36:04;100187.22;;;10.88;68.84
43814;BME280;29669;55.706;37.656;2022-11-10T02:39:10;100183.16;;;10.85;68.99
43814;BME280;29669;55.706;37.656;2022-11-10T02:42:16;100191.09;;;10.84;69.13
43814;BME280;29669;55.706;37.656;2022-11-10T02:45:23;100189.94;;;10.78;69.06
43814;BME280;29669;55.706;37.656;2022-11-10T02:48:30;100181.94;;;10.72;69.15
43814;BME280;29669;55.706;37.656;2022-11-10T02:51:36;100176.25;;;10.68;69.21
43814;BME280;29669;55.706;37.656;2022-11-10T02:54:42;100184.19;;;10.67;69.04
43814;BME280;29669;55.706;37.656;2022-11-10T02:57:49;100187.22;;;10.62;69.27
43814;BME280;29669;55.706;37.656;2022-11-10T03:00:55;100183.97;;;10.60;69.31
43814;BME280;29669;55.706;37.656;2022-11-10T03:04:02;100187.06;;;10.64;69.22
43814;BME280;29669;55.706;37.656;2022-11-10T03:07:10;100185.63;;;10.61;69.16
43814;BME280;29669;55.706;37.656;2022-11-10T03:10:17;100185.63;;;10.61;69.28
43814;BME280;29669;55.706;37.656;2022-11-10T03:13:24;100182.34;;;10.59;69.22
43814;BME280;29669;55.706;37.656;2022-11-10T03:16:50;100189.81;;;10.62;69.20
43814;BME280;29669;55.706;37.656;2022-11-10T03:19:56;100177.66;;;10.63;69.01
43814;BME280;29669;55.706;37.656;2022-11-10T03:23:04;100179.44;;;10.62;69.17
43814;BME280;29669;55.706;37.656;2022-11-10T03:26:10;100175.69;;;10.57;69.32
43814;BME280;29669;55.706;37.656;2022-11-10T03:29:17;100184.56;;;10.54;69.38
43814;BME280;29669;55.706;37.656;2022-11-10T03:32:23;100178.13;;;10.58;69.22
43814;BME280;29669;55.706;37.656;2022-11-10T03:35:30;100177.00;;;10.61;69.36
43814;BME280;29669;55.706;37.656;2022-11-10T03:38:37;100174.25;;;10.62;69.19
43814;BME280;29669;55.706;37.656;2022-11-10T03:41:43;100171.81;;;10.61;69.17
43814;BME280;29669;55.706;37.656;2022-11-10T03:44:49;100167.44;;;10.61;69.07
43814;BME280;29669;55.706;37.656;2022-11-10T03:47:55;100172.97;;;10.66;69.17
43814;BME280;29669;55.706;37.656;2022-11-10T03:51:01;100170.22;;;10.68;68.88
43814;BME280;29669;55.706;37.656;2022-11-10T03:54:08;100163.41;;;10.67;69.00
43814;BME280;29669;55.706;37.656;2022-11-10T03:57:14;100162.09;;;10.63;69.07
43814;BME280;29669;55.706;37.656;2022-11-10T04:00:20;100152.03;;;10.60;69.01
43814;BME280;29669;55.706;37.656;2022-11-10T04:03:27;100160.25;;;10.55;69.06
43814;BME280;29669;55.706;37.656;2022-11-10T04:06:33;100162.78;;;10.47;69.21
43814;BME280;29669;55.706;37.656;2022-11-10T04:09:58;100168.31;;;10.44;69.23
43814;BME280;29669;55.706;37.656;2022-11-10T04:13:04;100157.59;;;10.47;69.22
43814;BME280;29669;55.706;37.656;2022-11-10T04:16:30;100157.59;;;10.47;69.26
43814;BME280;29669;55.706;37.656;2022-11-10T04:19:36;100160.59;;;10.52;69.14
43814;BME280;29669;55.706;37.656;2022-11-10T04:22:42;100163.97;;;10.53;69.09
43814;BME280;29669;55.706;37.656;2022-11-10T04:26:09;100159.59;;;10.53;68.92
43814;BME280;29669;55.706;37.656;2022-11-10T04:29:33;100154.41;;;10.53;68.99
43814;BME280;29669;55.706;37.656;2022-11-10T04:32:39;100157.31;;;10.50;68.83
43814;BME280;29669;55.706;37.656;2022-11-10T04:35:45;100168.66;;;10.49;69.09
43814;BME280;29669;55.706;37.656;2022-11-10T04:38:52;100166.66;;;10.43;68.98
43814;BME280;29669;55.706;37.656;2022-11-10T04:42:00;100177.81;;;10.35;69.04
43814;BME280;29669;55.706;37.656;2022-11-10T04:45:08;100173.09;;;10.31;69.28
43814;BME280;29669;55.706;37.656;2022-11-10T04:48:14;100187.16;;;10.28;69.23
43814;BME280;29669;55.706;37.656;2022-11-10T04:51:23;100189.69;;;10.20;69.15
43814;BME280;29669;55.706;37.656;2022-11-10T04:54:30;100190.66;;;10.19;69.29
43814;BME280;29669;55.706;37.656;2022-11-10T04:57:36;100186.28;;;10.20;69.27
43814;BME280;29669;55.706;37.656;2022-11-10T05:00:42;100197.78;;;10.17;69.10
43814;BME280;29669;55.706;37.656;2022-11-10T05:03:49;100197.25;;;10.14;69.03
43814;BME280;29669;55.706;37.656;2022-11-10T05:06:55;100190.88;;;10.08;69.17
43814;BME280;29669;55.706;37.656;2022-11-10T05:10:03;100192.28;;;10.03;69.38
43814;BME280;29669;55.706;37.656;2022-11-10T05:13:09;100186.28;;;10.02;69.48
43814;BME280;29669;55.706;37.656;2022-11-10T05:16:16;100188.63;;;9.96;69.26
43814;BME280;29669;55.706;37.656;2022-11-10T05:19:22;100177.22;;;9.89;69.42
43814;BME280;29669;55.706;37.656;2022-11-10T05:22:28;100184.66;;;9.84;69.35
43814;BME280;29669;55.706;37.656;2022-11-10T05:25:36;100181.38;;;9.82;69.27
43814;BME280;29669;55.706;37.656;2022-11-10T05:28:44;100183.81;;;9.83;69.25
43814;BME280;29669;55.706;37.656;2022-11-10T05:31:50;100185.44;;;9.84;69.24
43814;BME280;29669;55.706;37.656;2022-11-10T05:34:56;100181.91;;;9.85;69.19
43814;BME280;29669;55.706;37.656;2022-11-10T05:38:03;100191.59;;;9.83;69.20
43814;BME280;29669;55.706;37.656;2022-11-10T05:41:10;100183.25;;;9.89;69.03
43814;BME280;29669;55.706;37.656;2022-11-10T05:44:16;100187.28;;;9.92;68.96
43814;BME280;29669;55.706;37.656;2022-11-10T05:47:22;100188.78;;;9.94;68.92
43814;BME280;29669;55.706;37.656;2022-11-10T05:50:29;100191.88;;;9.98;69.03
43814;BME280;29669;55.706;37.656;2022-11-10T05:53:35;100188.56;;;10.05;68.99
43814;BME280;29669;55.706;37.656;2022-11-10T05:56:41;100184.03;;;10.07;68.76
43814;BME280;29669;55.706;37.656;2022-11-10T05:59:47;100178.69;;;10.09;68.58
43814;BME280;29669;55.706;37.656;2022-11-10T06:03:01;100184.56;;;10.11;68.37
43814;BME280;29669;55.706;37.656;2022-11-10T06:06:07;100183.78;;;10.10;68.58
43814;BME280;29669;55.706;37.656;2022-11-10T06:09:14;100183.03;;;10.18;68.53
43814;BME280;29669;55.706;37.656;2022-11-10T06:12:20;100183.81;;;10.18;68.37
43814;BME280;29669;55.706;37.656;2022-11-10T06:15:26;100173.44;;;10.18;68.26
43814;BME280;29669;55.706;37.656;2022-11-10T06:18:32;100172.66;;;10.18;67.99
43814;BME280;29669;55.706;37.656;2022-11-10T06:21:38;100181.97;;;10.11;68.29
43814;BME280;29669;55.706;37.656;2022-11-10T06:24:44;100182.97;;;10.10;68.10
43814;BME280;29669;55.706;37.656;2022-11-10T06:27:51;100187.75;;;10.05;68.09
43814;BME280;29669;55.706;37.656;2022-11-10T06:30:57;100194.72;;;10.04;68.19
43814;BME280;29669;55.706;37.656;2022-11-10T06:34:04;100198.25;;;10.03;67.95
43814;BME280;29669;55.706;37.656;2022-11-10T06:37:10;100199.25;;;10.02;68.05
43814;BME280;29669;55.706;37.656;2022-11-10T06:40:16;100200.72;;;10.05;68.05
43814;BME280;29669;55.706;37.656;2022-11-10T06:43:22;100188.16;;;10.10;67.96
43814;BME280;29669;55.706;37.656;2022-11-10T06:46:29;100183.63;;;10.12;67.69
43814;BME280;29669;55.706;37.656;2022-11-10T06:49:35;100186.22;;;10.12;67.69
43814;BME280;29669;55.706;37.656;2022-11-10T06:52:41;100185.81;;;10.07;67.77
43814;BME280;29669;55.706;37.656;2022-11-10T06:55:47;100186.13;;;10.04;67.90
43814;BME280;29669;55.706;37.656;2022-11-10T06:58:53;100195.09;;;10.09;67.77
43814;BME280;29669;55.706;37.656;2022-11-10T07:01:59;100191.72;;;9.99;67.49
43814;BME280;29669;55.706;37.656;2022-11-10T07:05:05;100196.88;;;9.91;67.64
43814;BME280;29669;55.706;37.656;2022-11-10T07:08:14;100195.63;;;9.95;67.68
43814;BME280;29669;55.706;37.656;2022-11-10T07:11:21;100198.72;;;10.16;67.38
43814;BME280;29669;55.706;37.656;2022-11-10T07:14:27;100191.41;;;10.29;67.18
43814;BME280;29669;55.706;37.656;2022-11-10T07:17:40;100197.75;;;10.35;66.83
43814;BME280;29669;55.706;37.656;2022-11-10T07:20:46;100199.72;;;10.41;66.82
43814;BME280;29669;55.706;37.656;2022-11-10T07:23:52;100206.56;;;10.42;66.81
43814;BME280;29669;55.706;37.656;2022-11-10T07:26:59;100203.00;;;10.43;66.82
43814;BME280;29669;55.706;37.656;2022-11-10T07:30:06;100204.31;;;10.47;66.76
43814;BME280;29669;55.706;37.656;2022-11-10T07:33:13;100200.88;;;10.64;66.83
43814;BME280;29669;55.706;37.656;2022-11-10T07:36:19;100204.97;;;11.00;66.07
43814;BME280;29669;55.706;37.656;2022-11-10T07:39:25;100202.47;;;11.16;65.93
43814;BME280;29669;55.706;37.656;2022-11-10T07:42:31;100192.63;;;11.36;65.66
43814;BME280;29669;55.706;37.656;2022-11-10T07:45:37;100205.31;;;11.47;65.10
43814;BME280;29669;55.706;37.656;2022-11-10T07:48:44;100202.56;;;11.41;65.23
43814;BME280;29669;55.706;37.656;2022-11-10T07:51:50;100211.63;;;11.36;65.20
43814;BME280;29669;55.706;37.656;2022-11-10T07:54:56;100207.38;;;11.27;65.19
43814;BME280;29669;55.706;37.656;2022-11-10T07:58:03;100212.03;;;11.16;65.39
43814;BME280;29669;55.706;37.656;2022-11-10T08:01:09;100218.19;;;11.15;65.34
43814;BME280;29669;55.706;37.656;2022-11-10T08:04:16;100225.50;;;11.11;65.52
43814;BME280;29669;55.706;37.656;2022-11-10T08:07:22;100214.75;;;11.06;65.52
43814;BME280;29669;55.706;37.656;2022-11-10T08:10:28;100214.28;;;11.11;65.63
43814;BME280;29669;55.706;37.656;2022-11-10T08:13:35;100210.56;;;11.13;65.47
43814;BME280;29669;55.706;37.656;2022-11-10T08:16:41;100206.69;;;11.17;65.21
43814;BME280;29669;55.706;37.656;2022-11-10T08:19:46;100210.88;;;11.10;65.30
43814;BME280;29669;55.706;37.656;2022-11-10T08:23:01;100197.41;;;11.07;65.41
43814;BME280;29669;55.706;37.656;2022-11-10T08:26:07;100203.88;;;11.11;65.39
43814;BME280;29669;55.706;37.656;2022-11-10T08:29:13;100205.03;;;11.08;65.44
43814;BME280;29669;55.706;37.656;2022-11-10T08:32:19;100204.22;;;11.08;65.40
43814;BME280;29669;55.706;37.656;2022-11-10T08:35:28;100196.25;;;11.09;65.33
43814;BME280;29669;55.706;37.656;2022-11-10T08:38:35;100194.31;;;11.11;65.23
43814;BME280;29669;55.706;37.656;2022-11-10T08:41:41;100196.25;;;11.09;65.27
43814;BME280;29669;55.706;37.656;2022-11-10T08:44:47;100197.91;;;11.10;65.26
43814;BME280;29669;55.706;37.656;2022-11-10T08:48:01;100209.78;;;11.21;65.05
43814;BME280;29669;55.706;37.656;2022-11-10T08:51:07;100194.91;;;11.31;65.02
43814;BME280;29669;55.706;37.656;2022-11-10T08:54:13;100201.94;;;11.47;64.70
43814;BME280;29669;55.706;37.656;2022-11-10T08:57:19;100198.84;;;11.51;64.45
43814;BME280;29669;55.706;37.656;2022-11-10T09:00:26;100207.34;;;11.61;64.43
43814;BME280;29669;55.706;37.656;2022-11-10T09:03:33;100202.69;;;11.73;64.28
43814;BME280;29669;55.706;37.656;2022-11-10T09:06:41;100192.13;;;11.74;64.04
43814;BME280;29669;55.706;37.656;2022-11-10T09:09:47;100182.38;;;11.76;64.04
43814;BME280;29669;55.706;37.656;2022-11-10T09:13:13;100193.72;;;11.75;63.86
43814;BME280;29669;55.706;37.656;2022-11-10T09:16:20;100179.44;;;11.71;64.09
43814;BME280;29669;55.706;37.656;2022-11-10T09:19:26;100196.66;;;11.72;64.13
43814;BME280;29669;55.706;37.656;2022-11-10T09:22:34;100194.41;;;11.85;64.05
43814;BME280;29669;55.706;37.656;2022-11-10T09:25:42;100189.03;;;11.87;63.80
43814;BME280;29669;55.706;37.656;2022-11-10T09:28:48;100189.38;;;11.92;63.73
43814;BME280;29669;55.706;37.656;2022-11-10T09:31:55;100193.28;;;11.96;63.60
43814;BME280;29669;55.706;37.656;2022-11-10T09:35:01;100182.88;;;12.04;63.34
43814;BME280;29669;55.706;37.656;2022-11-10T09:38:08;100188.72;;;12.06;63.22
43814;BME280;29669;55.706;37.656;2022-11-10T09:41:14;100181.28;;;12.11;63.06
43814;BME280;29669;55.706;37.656;2022-11-10T09:44:26;100193.63;;;12.01;62.95
43814;BME280;29669;55.706;37.656;2022-11-10T09:47:57;100181.59;;;11.92;63.31
43814;BME280;29669;55.706;37.656;2022-11-10T09:51:14;100169.06;;;11.87;63.38
43814;BME280;29669;55.706;37.656;2022-11-10T09:54:27;100165.78;;;11.77;63.49
43814;BME280;29669;55.706;37.656;2022-11-10T09:57:39;100162.03;;;11.72;63.54
43814;BME280;29669;55.706;37.656;2022-11-10T10:07:45;100170.00;;;11.70;63.68
43814;BME280;29669;55.706;37.656;2022-11-10T10:18:21;100161.41;;;11.78;63.33
43814;BME280;29669;55.706;37.656;2022-11-10T10:24:58;100165.13;;;11.83;63.36
43814;BME280;29669;55.706;37.656;2022-11-10T10:28:15;100162.22;;;11.86;63.17
43814;BME280;29669;55.706;37.656;2022-11-10T10:31:29;100175.06;;;11.88;63.23
43814;BME280;29669;55.706;37.656;2022-11-10T10:34:37;100164.69;;;11.96;63.10
43814;BME280;29669;55.706;37.656;2022-11-10T10:37:48;100158.97;;;12.08;62.83
43814;BME280;29669;55.706;37.656;2022-11-10T10:40:59;100159.78;;;12.17;62.83
43814;BME280;29669;55.706;37.656;2022-11-10T10:44:17;100169.88;;;12.28;62.51
43814;BME280;29669;55.706;37.656;2022-11-10T10:47:35;100172.78;;;12.25;62.60
43814;BME280;29669;55.706;37.656;2022-11-10T10:50:42;100172.16;;;12.23;62.78
43814;BME280;29669;55.706;37.656;2022-11-10T10:53:48;100171.50;;;12.29;62.84
43814;BME280;29669;55.706;37.656;2022-11-10T11:00:20;100171.97;;;12.32;62.40
43814;BME280;29669;55.706;37.656;2022-11-10T11:03:48;100163.03;;;12.27;62.57
43814;BME280;29669;55.706;37.656;2022-11-10T11:07:01;100169.53;;;12.23;62.72
43814;BME280;29669;55.706;37.656;2022-11-10T11:10:22;100156.22;;;12.26;62.67
43814;BME280;29669;55.706;37.656;2022-11-10T11:13:29;100154.09;;;12.29;62.61
43814;BME280;29669;55.706;37.656;2022-11-10T11:16:54;100154.44;;;12.18;62.42
43814;BME280;29669;55.706;37.656;2022-11-10T11:20:01;100161.75;;;12.07;62.72
43814;BME280;29669;55.706;37.656;2022-11-10T11:26:55;100160.13;;;12.14;62.53
43814;BME280;29669;55.706;37.656;2022-11-10T11:30:08;100160.75;;;12.08;62.56
43814;BME280;29669;55.706;37.656;2022-11-10T11:36:33;100170.69;;;11.88;62.89
43814;BME280;29669;55.706;37.656;2022-11-10T11:43:02;100171.81;;;11.86;63.00
43814;BME280;29669;55.706;37.656;2022-11-10T11:53:59;100186.72;;;11.68;63.16
43814;BME280;29669;55.706;37.656;2022-11-10T12:00:55;100162.69;;;11.66;63.37
43814;BME280;29669;55.706;37.656;2022-11-10T12:07:56;100167.91;;;11.66;63.24
43814;BME280;29669;55.706;37.656;2022-11-10T12:15:09;100168.88;;;11.73;63.26
43814;BME280;29669;55.706;37.656;2022-11-10T12:18:32;100157.50;;;11.74;63.25
43814;BME280;29669;55.706;37.656;2022-11-10T12:21:47;100148.41;;;11.78;63.12
43814;BME280;29669;55.706;37.656;2022-11-10T12:28:14;100166.13;;;11.74;63.15
43814;BME280;29669;55.706;37.656;2022-11-10T12:31:23;100172.63;;;11.78;63.10
43814;BME280;29669;55.706;37.656;2022-11-10T12:34:54;100192.94;;;11.75;63.06
43814;BME280;29669;55.706;37.656;2022-11-10T12:38:18;100202.03;;;11.71;63.04
43814;BME280;29669;55.706;37.656;2022-11-10T12:41:31;100201.97;;;11.63;63.47
43814;BME280;29669;55.706;37.656;2022-11-10T12:47:59;100214.63;;;11.58;63.56
43814;BME280;29669;55.706;37.656;2022-11-10T12:51:21;100209.75;;;11.55;63.63
43814;BME280;29669;55.706;37.656;2022-11-10T12:54:30;100214.28;;;11.53;63.57
43814;BME280;29669;55.706;37.656;2022-11-10T12:57:36;100207.63;;;11.50;63.76
43814;BME280;29669;55.706;37.656;2022-11-10T13:00:54;100207.44;;;11.44;63.76
43814;BME280;29669;55.706;37.656;2022-11-10T13:04:01;100213.13;;;11.39;64.03
43814;BME280;29669;55.706;37.656;2022-11-10T13:07:09;100213.63;;;11.43;63.88
43814;BME280;29669;55.706;37.656;2022-11-10T13:10:24;100211.03;;;11.43;63.81
43814;BME280;29669;55.706;37.656;2022-11-10T13:13:46;100215.19;;;11.35;63.91
43814;BME280;29669;55.706;37.656;2022-11-10T13:16:59;100216.50;;;11.31;64.16
43814;BME280;29669;55.706;37.656;2022-11-10T13:26:55;100239.84;;;11.23;64.21
43814;BME280;29669;55.706;37.656;2022-11-10T13:30:02;100255.38;;;11.15;64.38
43814;BME280;29669;55.706;37.656;2022-11-10T13:33:33;100244.34;;;11.13;64.39
43814;BME280;29669;55.706;37.656;2022-11-10T13:36:42;100243.00;;;11.09;64.40
43814;BME280;29669;55.706;37.656;2022-11-10T13:39:49;100239.91;;;11.06;64.47
43814;BME280;29669;55.706;37.656;2022-11-10T13:46:04;100247.53;;;11.07;64.56
43814;BME280;29669;55.706;37.656;2022-11-10T13:49:29;100247.91;;;11.12;64.53
43814;BME280;29669;55.706;37.656;2022-11-10T13:59:18;100245.59;;;11.01;64.59
43814;BME280;29669;55.706;37.656;2022-11-10T14:06:03;100253.31;;;10.93;64.84
43814;BME280;29669;55.706;37.656;2022-11-10T14:09:22;100252.81;;;10.90;64.93
43814;BME280;29669;55.706;37.656;2022-11-10T14:12:51;100250.34;;;10.88;64.99
43814;BME280;29669;55.706;37.656;2022-11-10T14:16:00;100250.34;;;10.88;65.04
43814;BME280;29669;55.706;37.656;2022-11-10T14:22:33;100246.47;;;10.92;65.04
43814;BME280;29669;55.706;37.656;2022-11-10T14:25:42;100235.81;;;10.95;65.09
43814;BME280;29669;55.706;37.656;2022-11-10T14:28:50;100230.63;;;10.95;65.14
43814;BME280;29669;55.706;37.656;2022-11-10T14:32:04;100231.88;;;10.91;65.17
43814;BME280;29669;55.706;37.656;2022-11-10T14:35:26;100207.69;;;10.91;65.24
43814;BME280;29669;55.706;37.656;2022-11-10T14:38:33;100214.38;;;10.93;65.21
43814;BME280;29669;55.706;37.656;2022-11-10T14:41:47;100236.75;;;10.94;65.15
43814;BME280;29669;55.706;37.656;2022-11-10T14:48:23;100253.16;;;10.95;65.36
43814;BME280;29669;55.706;37.656;2022-11-10T14:51:33;100255.75;;;10.95;65.33
43814;BME280;29669;55.706;37.656;2022-11-10T14:54:43;100258.00;;;10.90;65.27
43814;BME280;29669;55.706;37.656;2022-11-10T14:58:06;100265.81;;;10.90;65.49
43814;BME280;29669;55.706;37.656;2022-11-10T15:01:25;100264.81;;;10.91;65.51
43814;BME280;29669;55.706;37.656;2022-11-10T15:04:32;100258.47;;;10.85;65.50
43814;BME280;29669;55.706;37.656;2022-11-10T15:07:42;100250.66;;;10.85;65.64
43814;BME280;29669;55.706;37.656;2022-11-10T15:10:51;100255.53;;;10.88;65.60
43814;BME280;29669;55.706;37.656;2022-11-10T15:14:01;100265.25;;;10.86;65.56
43814;BME280;29669;55.706;37.656;2022-11-10T15:17:09;100260.41;;;10.83;65.70
43814;BME280;29669;55.706;37.656;2022-11-10T15:20:37;100264.09;;;10.81;65.83
43814;BME280;29669;55.706;37.656;2022-11-10T15:23:46;100264.41;;;10.78;65.77
43814;BME280;29669;55.706;37.656;2022-11-10T15:26:57;100263.97;;;10.82;65.86
43814;BME280;29669;55.706;37.656;2022-11-10T15:30:20;100260.41;;;10.83;65.83
43814;BME280;29669;55.706;37.656;2022-11-10T15:33:32;100259.22;;;10.78;65.77
43814;BME280;29669;55.706;37.656;2022-11-10T15:36:39;100267.84;;;10.78;65.81
43814;BME280;29669;55.706;37.656;2022-11-10T15:39:45;100263.59;;;10.77;65.78
43814;BME280;29669;55.706;37.656;2022-11-10T15:43:26;100273.03;;;10.78;65.74
43814;BME280;29669;55.706;37.656;2022-11-10T15:46:33;100259.66;;;10.73;65.96
43814;BME280;29669;55.706;37.656;2022-11-10T15:49:39;100274.56;;;10.71;66.01
43814;BME280;29669;55.706;37.656;2022-11-10T15:52:45;100265.16;;;10.70;65.92
43814;BME280;29669;55.706;37.656;2022-11-10T15:55:52;100267.25;;;10.67;66.00
43814;BME280;29669;55.706;37.656;2022-11-10T15:58:59;100260.72;;;10.63;65.99
43814;BME280;29669;55.706;37.656;2022-11-10T16:02:18;100264.44;;;10.60;65.97
43814;BME280;29669;55.706;37.656;2022-11-10T16:05:24;100270.09;;;10.56;66.16
43814;BME280;29669;55.706;37.656;2022-11-10T16:08:30;100263.09;;;10.56;66.11
43814;BME280;29669;55.706;37.656;2022-11-10T16:11:37;100260.00;;;10.53;66.15
43814;BME280;29669;55.706;37.656;2022-11-10T16:14:47;100257.56;;;10.51;66.09
43814;BME280;29669;55.706;37.656;2022-11-10T16:17:54;100255.13;;;10.50;66.30
43814;BME280;29669;55.706;37.656;2022-11-10T16:21:00;100255.94;;;10.50;66.27
43814;BME280;29669;55.706;37.656;2022-11-10T16:24:06;100244.22;;;10.46;66.15
43814;BME280;29669;55.706;37.656;2022-11-10T16:27:13;100249.69;;;10.43;66.17
43814;BME280;29669;55.706;37.656;2022-11-10T16:30:19;100254.38;;;10.39;66.37
43814;BME280;29669;55.706;37.656;2022-11-10T16:33:26;100249.34;;;10.38;66.49
43814;BME280;29669;55.706;37.656;2022-11-10T16:36:35;100252.91;;;10.37;66.49
43814;BME280;29669;55.706;37.656;2022-11-10T16:39:41;100248.00;;;10.34;66.48
43814;BME280;29669;55.706;37.656;2022-11-10T16:42:50;100252.38;;;10.33;66.47
43814;BME280;29669;55.706;37.656;2022-11-10T16:45:58;100252.25;;;10.35;66.53
43814;BME280;29669;55.706;37.656;2022-11-10T16:49:06;100260.41;;;10.40;66.33
43814;BME280;29669;55.706;37.656;2022-11-10T16:52:20;100257.72;;;10.32;66.40
43814;BME280;29669;55.706;37.656;2022-11-10T16:55:28;100270.34;;;10.27;66.47
43814;BME280;29669;55.706;37.656;2022-11-10T16:58:34;100261.56;;;10.28;66.59
43814;BME280;29669;55.706;37.656;2022-11-10T17:01:42;100254.78;;;10.27;66.55
43814;BME280;29669;55.706;37.656;2022-11-10T17:04:49;100274.84;;;10.25;66.68
43814;BME280;29669;55.706;37.656;2022-11-10T17:07:56;100279.69;;;10.20;66.67
43814;BME280;29669;55.706;37.656;2022-11-10T17:11:03;100284.88;;;10.20;66.71
43814;BME280;29669;55.706;37.656;2022-11-10T17:14:11;100284.88;;;10.20;66.78
43814;BME280;29669;55.706;37.656;2022-11-10T17:17:18;100270.91;;;10.21;66.69
43814;BME280;29669;55.706;37.656;2022-11-10T17:20:32;100279.06;;;10.26;66.73
43814;BME280;29669;55.706;37.656;2022-11-10T17:23:39;100272.63;;;10.30;66.58
43814;BME280;29669;55.706;37.656;2022-11-10T17:26:46;100271.16;;;10.27;66.42
43814;BME280;29669;55.706;37.656;2022-11-10T17:29:52;100260.25;;;10.24;66.65
43814;BME280;29669;55.706;37.656;2022-11-10T17:32:58;100265.44;;;10.24;66.51
43814;BME280;29669;55.706;37.656;2022-11-10T17:36:13;100262.16;;;10.22;66.60
43814;BME280;29669;55.706;37.656;2022-11-10T17:39:20;100268.19;;;10.22;66.61
43814;BME280;29669;55.706;37.656;2022-11-10T17:42:27;100271.91;;;10.20;66.56
43814;BME280;29669;55.706;37.656;2022-11-10T17:45:34;100273.16;;;10.16;66.59
43814;BME280;29669;55.706;37.656;2022-11-10T17:48:40;100277.53;;;10.15;66.79
43814;BME280;29669;55.706;37.656;2022-11-10T17:51:46;100269.38;;;10.10;66.74